sensor_id;sensor_type;location;lat;lon;timestamp;P1;durP1;ratioP1;P2;durP2;ratioP2
26656;SDS011;14279;50.010;8.260;2022-10-26T00:00:51;7.83;;;3.90;;
26656;SDS011;14279;50.010;8.260;2022-10-26T00:03:17;10.13;;;3.93;;
26656;SDS011;14279;50.010;8.260;2022-10-26T00:05:43;11.90;;;3.80;;
26656;SDS011;14279;50.010;8.260;2022-10-26T00:08:09;6.50;;;3.70;;
26656;SDS011;14279;50.010;8.260;2022-10-26T00:10:35;12.00;;;4.13;;
26656;SDS011;14279;50.010;8.260;2022-10-26T00:13:01;14.80;;;4.37;;
26656;SDS011;14279;50.010;8.260;2022-10-26T00:15:28;7.70;;;3.57;;
26656;SDS011;14279;50.010;8.260;2022-10-26T00:17:53;9.50;;;4.43;;
26656;SDS011;14279;50.010;8.260;2022-10-26T00:20:18;15.13;;;4.40;;
26656;SDS011;14279;50.010;8.260;2022-10-26T00:22:44;13.83;;;4.63;;
26656;SDS011;14279;50.010;8.260;2022-10-26T00:25:09;7.30;;;4.40;;
26656;SDS011;14279;50.010;8.260;2022-10-26T00:27:34;19.33;;;5.43;;
26656;SDS011;14279;50.010;8.260;2022-10-26T00:30:00;16.60;;;4.63;;
26656;SDS011;14279;50.010;8.260;2022-10-26T00:32:26;16.03;;;4.73;;
26656;SDS011;14279;50.010;8.260;2022-10-26T00:34:51;12.00;;;4.70;;
26656;SDS011;14279;50.010;8.260;2022-10-26T00:37:16;13.17;;;4.30;;
26656;SDS011;14279;50.010;8.260;2022-10-26T00:39:42;9.30;;;3.90;;
26656;SDS011;14279;50.010;8.260;2022-10-26T00:42:11;7.60;;;4.70;;
26656;SDS011;14279;50.010;8.260;2022-10-26T00:49:44;15.07;;;4.00;;
26656;SDS011;14279;50.010;8.260;2022-10-26T00:52:13;16.53;;;4.53;;
26656;SDS011;14279;50.010;8.260;2022-10-26T00:54:40;9.07;;;3.70;;
26656;SDS011;14279;50.010;8.260;2022-10-26T00:57:07;14.03;;;3.93;;
26656;SDS011;14279;50.010;8.260;2022-10-26T00:59:32;6.87;;;3.67;;
26656;SDS011;14279;50.010;8.260;2022-10-26T01:01:57;10.00;;;4.30;;
26656;SDS011;14279;50.010;8.260;2022-10-26T01:04:23;12.77;;;3.90;;
26656;SDS011;14279;50.010;8.260;2022-10-26T01:06:49;8.47;;;4.20;;
26656;SDS011;14279;50.010;8.260;2022-10-26T01:09:15;11.30;;;3.93;;
26656;SDS011;14279;50.010;8.260;2022-10-26T01:11:42;9.53;;;3.53;;
26656;SDS011;14279;50.010;8.260;2022-10-26T01:14:08;7.97;;;3.70;;
26656;SDS011;14279;50.010;8.260;2022-10-26T01:22:55;7.17;;;4.03;;
26656;SDS011;14279;50.010;8.260;2022-10-26T01:31:14;15.47;;;4.00;;
26656;SDS011;14279;50.010;8.260;2022-10-26T01:33:51;14.67;;;3.93;;
26656;SDS011;14279;50.010;8.260;2022-10-26T01:41:49;11.03;;;3.90;;
26656;SDS011;14279;50.010;8.260;2022-10-26T01:44:20;6.47;;;3.87;;
26656;SDS011;14279;50.010;8.260;2022-10-26T01:46:50;9.20;;;4.23;;
26656;SDS011;14279;50.010;8.260;2022-10-26T01:49:22;11.33;;;4.10;;
26656;SDS011;14279;50.010;8.260;2022-10-26T01:51:52;7.70;;;4.50;;
26656;SDS011;14279;50.010;8.260;2022-10-26T01:54:17;10.70;;;4.13;;
26656;SDS011;14279;50.010;8.260;2022-10-26T01:57:01;17.63;;;4.23;;
26656;SDS011;14279;50.010;8.260;2022-10-26T02:10:33;9.47;;;4.07;;
26656;SDS011;14279;50.010;8.260;2022-10-26T02:13:22;10.17;;;4.00;;
26656;SDS011;14279;50.010;8.260;2022-10-26T02:16:07;14.63;;;3.90;;
26656;SDS011;14279;50.010;8.260;2022-10-26T02:21:19;13.43;;;4.63;;
26656;SDS011;14279;50.010;8.260;2022-10-26T02:23:55;9.10;;;5.73;;
26656;SDS011;14279;50.010;8.260;2022-10-26T02:26:23;8.90;;;4.87;;
26656;SDS011;14279;50.010;8.260;2022-10-26T02:28:53;8.80;;;5.07;;
26656;SDS011;14279;50.010;8.260;2022-10-26T02:31:21;7.50;;;4.17;;
26656;SDS011;14279;50.010;8.260;2022-10-26T02:33:49;9.27;;;4.73;;
26656;SDS011;14279;50.010;8.260;2022-10-26T02:36:19;10.60;;;5.00;;
26656;SDS011;14279;50.010;8.260;2022-10-26T02:38:48;13.63;;;4.27;;
26656;SDS011;14279;50.010;8.260;2022-10-26T02:41:16;11.13;;;4.97;;
26656;SDS011;14279;50.010;8.260;2022-10-26T02:43:45;9.67;;;5.23;;
26656;SDS011;14279;50.010;8.260;2022-10-26T02:46:17;11.63;;;4.83;;
26656;SDS011;14279;50.010;8.260;2022-10-26T02:48:47;12.90;;;5.20;;
26656;SDS011;14279;50.010;8.260;2022-10-26T02:51:30;13.87;;;5.67;;
26656;SDS011;14279;50.010;8.260;2022-10-26T02:54:11;19.33;;;4.90;;
26656;SDS011;14279;50.010;8.260;2022-10-26T02:59:12;12.13;;;5.30;;
26656;SDS011;14279;50.010;8.260;2022-10-26T03:01:40;13.63;;;5.83;;
26656;SDS011;14279;50.010;8.260;2022-10-26T03:04:06;13.53;;;5.57;;
26656;SDS011;14279;50.010;8.260;2022-10-26T03:06:31;8.40;;;5.03;;
26656;SDS011;14279;50.010;8.260;2022-10-26T03:08:56;15.87;;;5.10;;
26656;SDS011;14279;50.010;8.260;2022-10-26T03:11:22;13.00;;;5.10;;
26656;SDS011;14279;50.010;8.260;2022-10-26T03:13:47;14.53;;;5.30;;
26656;SDS011;14279;50.010;8.260;2022-10-26T03:16:12;10.73;;;5.10;;
26656;SDS011;14279;50.010;8.260;2022-10-26T03:18:37;9.47;;;5.23;;
26656;SDS011;14279;50.010;8.260;2022-10-26T03:21:03;11.37;;;5.10;;
26656;SDS011;14279;50.010;8.260;2022-10-26T03:23:28;15.13;;;5.47;;
26656;SDS011;14279;50.010;8.260;2022-10-26T03:25:57;15.43;;;5.37;;
26656;SDS011;14279;50.010;8.260;2022-10-26T03:28:22;23.40;;;4.90;;
26656;SDS011;14279;50.010;8.260;2022-10-26T03:30:48;14.13;;;5.30;;
26656;SDS011;14279;50.010;8.260;2022-10-26T03:33:13;12.17;;;5.80;;
26656;SDS011;14279;50.010;8.260;2022-10-26T03:35:38;15.97;;;5.43;;
26656;SDS011;14279;50.010;8.260;2022-10-26T03:38:04;12.83;;;5.23;;
26656;SDS011;14279;50.010;8.260;2022-10-26T03:40:29;14.30;;;5.40;;
26656;SDS011;14279;50.010;8.260;2022-10-26T03:42:54;11.60;;;5.30;;
26656;SDS011;14279;50.010;8.260;2022-10-26T03:45:20;14.20;;;4.80;;
26656;SDS011;14279;50.010;8.260;2022-10-26T03:47:45;10.13;;;4.53;;
26656;SDS011;14279;50.010;8.260;2022-10-26T03:50:12;18.73;;;5.20;;
26656;SDS011;14279;50.010;8.260;2022-10-26T03:52:39;12.83;;;5.03;;
26656;SDS011;14279;50.010;8.260;2022-10-26T03:55:05;12.20;;;5.43;;
26656;SDS011;14279;50.010;8.260;2022-10-26T03:57:31;12.83;;;4.97;;
26656;SDS011;14279;50.010;8.260;2022-10-26T03:59:56;12.50;;;4.33;;
26656;SDS011;14279;50.010;8.260;2022-10-26T04:02:21;12.23;;;4.50;;
26656;SDS011;14279;50.010;8.260;2022-10-26T04:04:47;12.13;;;5.10;;
26656;SDS011;14279;50.010;8.260;2022-10-26T04:07:12;12.43;;;5.20;;
26656;SDS011;14279;50.010;8.260;2022-10-26T04:09:37;11.10;;;5.47;;
26656;SDS011;14279;50.010;8.260;2022-10-26T04:12:02;9.80;;;5.00;;
26656;SDS011;14279;50.010;8.260;2022-10-26T04:14:28;10.87;;;4.80;;
26656;SDS011;14279;50.010;8.260;2022-10-26T04:16:53;10.73;;;5.23;;
26656;SDS011;14279;50.010;8.260;2022-10-26T04:19:18;12.53;;;4.97;;
26656;SDS011;14279;50.010;8.260;2022-10-26T04:21:44;9.23;;;4.80;;
26656;SDS011;14279;50.010;8.260;2022-10-26T04:24:09;7.63;;;4.43;;
26656;SDS011;14279;50.010;8.260;2022-10-26T04:26:35;19.90;;;4.93;;
26656;SDS011;14279;50.010;8.260;2022-10-26T04:29:00;13.97;;;5.27;;
26656;SDS011;14279;50.010;8.260;2022-10-26T04:31:28;14.43;;;5.57;;
26656;SDS011;14279;50.010;8.260;2022-10-26T04:33:54;9.43;;;4.40;;
26656;SDS011;14279;50.010;8.260;2022-10-26T04:36:19;8.57;;;4.80;;
26656;SDS011;14279;50.010;8.260;2022-10-26T04:38:44;10.30;;;5.17;;
26656;SDS011;14279;50.010;8.260;2022-10-26T04:41:11;10.17;;;5.97;;
26656;SDS011;14279;50.010;8.260;2022-10-26T04:43:37;15.60;;;4.93;;
26656;SDS011;14279;50.010;8.260;2022-10-26T04:46:02;14.80;;;5.60;;
26656;SDS011;14279;50.010;8.260;2022-10-26T04:48:27;9.13;;;5.70;;
26656;SDS011;14279;50.010;8.260;2022-10-26T04:50:53;13.53;;;5.30;;
26656;SDS011;14279;50.010;8.260;2022-10-26T04:53:18;13.90;;;6.03;;
26656;SDS011;14279;50.010;8.260;2022-10-26T04:55:43;13.50;;;5.83;;
26656;SDS011;14279;50.010;8.260;2022-10-26T04:58:08;17.53;;;5.50;;
26656;SDS011;14279;50.010;8.260;2022-10-26T05:00:34;12.73;;;6.60;;
26656;SDS011;14279;50.010;8.260;2022-10-26T05:03:00;10.50;;;5.07;;
26656;SDS011;14279;50.010;8.260;2022-10-26T05:05:29;11.63;;;5.70;;
26656;SDS011;14279;50.010;8.260;2022-10-26T05:07:56;8.70;;;5.70;;
26656;SDS011;14279;50.010;8.260;2022-10-26T05:10:22;14.57;;;5.93;;
26656;SDS011;14279;50.010;8.260;2022-10-26T05:12:54;9.90;;;6.47;;
26656;SDS011;14279;50.010;8.260;2022-10-26T05:15:21;12.93;;;5.53;;
26656;SDS011;14279;50.010;8.260;2022-10-26T05:17:53;17.60;;;6.07;;
26656;SDS011;14279;50.010;8.260;2022-10-26T05:20:20;11.63;;;6.00;;
26656;SDS011;14279;50.010;8.260;2022-10-26T05:22:51;9.17;;;5.60;;
26656;SDS011;14279;50.010;8.260;2022-10-26T05:25:16;16.50;;;5.20;;
26656;SDS011;14279;50.010;8.260;2022-10-26T05:27:42;11.47;;;5.60;;
26656;SDS011;14279;50.010;8.260;2022-10-26T05:30:07;11.00;;;5.43;;
26656;SDS011;14279;50.010;8.260;2022-10-26T05:32:33;7.73;;;4.60;;
26656;SDS011;14279;50.010;8.260;2022-10-26T05:34:58;14.67;;;5.27;;
26656;SDS011;14279;50.010;8.260;2022-10-26T05:37:23;9.63;;;4.73;;
26656;SDS011;14279;50.010;8.260;2022-10-26T05:39:51;7.23;;;4.53;;
26656;SDS011;14279;50.010;8.260;2022-10-26T05:42:17;12.10;;;4.83;;
26656;SDS011;14279;50.010;8.260;2022-10-26T05:44:42;12.17;;;4.60;;
26656;SDS011;14279;50.010;8.260;2022-10-26T05:47:07;12.87;;;4.20;;
26656;SDS011;14279;50.010;8.260;2022-10-26T05:49:32;10.87;;;4.10;;
26656;SDS011;14279;50.010;8.260;2022-10-26T05:51:58;10.00;;;4.60;;
26656;SDS011;14279;50.010;8.260;2022-10-26T05:54:23;10.53;;;4.07;;
26656;SDS011;14279;50.010;8.260;2022-10-26T05:56:48;16.47;;;4.17;;
26656;SDS011;14279;50.010;8.260;2022-10-26T05:59:14;17.90;;;5.07;;
26656;SDS011;14279;50.010;8.260;2022-10-26T06:04:28;12.53;;;4.50;;
26656;SDS011;14279;50.010;8.260;2022-10-26T06:06:54;14.40;;;5.10;;
26656;SDS011;14279;50.010;8.260;2022-10-26T06:09:21;13.33;;;4.90;;
26656;SDS011;14279;50.010;8.260;2022-10-26T06:11:47;15.30;;;4.70;;
26656;SDS011;14279;50.010;8.260;2022-10-26T06:14:13;15.93;;;4.50;;
26656;SDS011;14279;50.010;8.260;2022-10-26T06:28:42;15.73;;;4.40;;
26656;SDS011;14279;50.010;8.260;2022-10-26T06:31:21;10.70;;;3.87;;
26656;SDS011;14279;50.010;8.260;2022-10-26T06:33:50;27.03;;;5.20;;
26656;SDS011;14279;50.010;8.260;2022-10-26T06:37:16;11.73;;;5.23;;
26656;SDS011;14279;50.010;8.260;2022-10-26T06:40:25;16.00;;;4.40;;
26656;SDS011;14279;50.010;8.260;2022-10-26T06:43:51;12.53;;;4.53;;
26656;SDS011;14279;50.010;8.260;2022-10-26T06:53:29;11.93;;;5.50;;
26656;SDS011;14279;50.010;8.260;2022-10-26T06:55:59;12.90;;;4.30;;
26656;SDS011;14279;50.010;8.260;2022-10-26T06:58:30;7.13;;;5.00;;
26656;SDS011;14279;50.010;8.260;2022-10-26T07:00:59;11.20;;;5.50;;
26656;SDS011;14279;50.010;8.260;2022-10-26T07:03:30;7.77;;;4.30;;
26656;SDS011;14279;50.010;8.260;2022-10-26T07:05:56;11.23;;;4.60;;
26656;SDS011;14279;50.010;8.260;2022-10-26T07:08:21;8.57;;;5.00;;
26656;SDS011;14279;50.010;8.260;2022-10-26T07:10:46;14.20;;;6.17;;
26656;SDS011;14279;50.010;8.260;2022-10-26T07:13:12;16.50;;;5.77;;
26656;SDS011;14279;50.010;8.260;2022-10-26T07:15:37;15.43;;;6.57;;
26656;SDS011;14279;50.010;8.260;2022-10-26T07:18:04;22.03;;;6.17;;
26656;SDS011;14279;50.010;8.260;2022-10-26T07:20:31;11.63;;;5.67;;
26656;SDS011;14279;50.010;8.260;2022-10-26T07:23:01;14.97;;;5.50;;
26656;SDS011;14279;50.010;8.260;2022-10-26T07:25:27;12.40;;;5.47;;
26656;SDS011;14279;50.010;8.260;2022-10-26T07:27:56;21.13;;;5.13;;
26656;SDS011;14279;50.010;8.260;2022-10-26T07:30:23;16.83;;;5.63;;
26656;SDS011;14279;50.010;8.260;2022-10-26T07:32:48;16.40;;;5.53;;
26656;SDS011;14279;50.010;8.260;2022-10-26T07:35:13;14.70;;;5.93;;
26656;SDS011;14279;50.010;8.260;2022-10-26T07:37:38;17.13;;;5.97;;
26656;SDS011;14279;50.010;8.260;2022-10-26T07:40:04;16.60;;;5.87;;
26656;SDS011;14279;50.010;8.260;2022-10-26T07:42:30;8.83;;;5.10;;
26656;SDS011;14279;50.010;8.260;2022-10-26T07:44:55;28.60;;;6.30;;
26656;SDS011;14279;50.010;8.260;2022-10-26T07:47:21;13.77;;;5.97;;
26656;SDS011;14279;50.010;8.260;2022-10-26T07:49:46;13.93;;;5.57;;
26656;SDS011;14279;50.010;8.260;2022-10-26T07:58:54;13.03;;;5.73;;
26656;SDS011;14279;50.010;8.260;2022-10-26T08:01:44;22.80;;;5.40;;
26656;SDS011;14279;50.010;8.260;2022-10-26T08:04:28;12.10;;;5.17;;
26656;SDS011;14279;50.010;8.260;2022-10-26T08:11:08;11.83;;;4.67;;
26656;SDS011;14279;50.010;8.260;2022-10-26T08:13:33;13.90;;;4.80;;
26656;SDS011;14279;50.010;8.260;2022-10-26T08:16:00;18.17;;;6.37;;
26656;SDS011;14279;50.010;8.260;2022-10-26T08:18:28;12.23;;;5.40;;
26656;SDS011;14279;50.010;8.260;2022-10-26T08:20:53;22.07;;;6.63;;
26656;SDS011;14279;50.010;8.260;2022-10-26T08:23:19;12.30;;;5.50;;
26656;SDS011;14279;50.010;8.260;2022-10-26T08:25:45;14.23;;;5.80;;
26656;SDS011;14279;50.010;8.260;2022-10-26T08:28:10;17.40;;;5.60;;
26656;SDS011;14279;50.010;8.260;2022-10-26T08:30:35;18.07;;;5.37;;
26656;SDS011;14279;50.010;8.260;2022-10-26T08:33:02;14.20;;;5.90;;
26656;SDS011;14279;50.010;8.260;2022-10-26T08:35:29;13.90;;;6.47;;
26656;SDS011;14279;50.010;8.260;2022-10-26T08:37:55;10.87;;;5.50;;
26656;SDS011;14279;50.010;8.260;2022-10-26T08:40:21;17.63;;;6.23;;
26656;SDS011;14279;50.010;8.260;2022-10-26T08:42:51;11.27;;;5.90;;
26656;SDS011;14279;50.010;8.260;2022-10-26T08:47:45;22.20;;;9.10;;
26656;SDS011;14279;50.010;8.260;2022-10-26T08:50:24;21.83;;;10.83;;
26656;SDS011;14279;50.010;8.260;2022-10-26T08:53:02;25.73;;;9.13;;
26656;SDS011;14279;50.010;8.260;2022-10-26T08:55:47;16.90;;;7.77;;
26656;SDS011;14279;50.010;8.260;2022-10-26T08:58:29;18.23;;;7.77;;
26656;SDS011;14279;50.010;8.260;2022-10-26T09:01:18;24.20;;;5.63;;
26656;SDS011;14279;50.010;8.260;2022-10-26T09:03:44;17.13;;;8.10;;
26656;SDS011;14279;50.010;8.260;2022-10-26T09:14:07;7.40;;;4.93;;
26656;SDS011;14279;50.010;8.260;2022-10-26T09:19:21;10.07;;;4.50;;
26656;SDS011;14279;50.010;8.260;2022-10-26T09:22:06;20.30;;;8.70;;
26656;SDS011;14279;50.010;8.260;2022-10-26T09:24:41;19.10;;;5.27;;
26656;SDS011;14279;50.010;8.260;2022-10-26T09:30:03;18.13;;;5.17;;
26656;SDS011;14279;50.010;8.260;2022-10-26T09:32:37;13.93;;;5.03;;
26656;SDS011;14279;50.010;8.260;2022-10-26T09:35:19;13.20;;;5.13;;
26656;SDS011;14279;50.010;8.260;2022-10-26T09:37:50;10.83;;;4.80;;
26656;SDS011;14279;50.010;8.260;2022-10-26T09:43:18;10.20;;;4.60;;
26656;SDS011;14279;50.010;8.260;2022-10-26T09:45:49;6.80;;;4.50;;
26656;SDS011;14279;50.010;8.260;2022-10-26T09:48:20;9.50;;;4.50;;
26656;SDS011;14279;50.010;8.260;2022-10-26T09:50:53;17.87;;;10.17;;
26656;SDS011;14279;50.010;8.260;2022-10-26T09:53:20;26.43;;;14.23;;
26656;SDS011;14279;50.010;8.260;2022-10-26T09:55:46;17.03;;;6.80;;
26656;SDS011;14279;50.010;8.260;2022-10-26T09:58:26;17.03;;;8.07;;
26656;SDS011;14279;50.010;8.260;2022-10-26T10:00:54;12.50;;;5.20;;
26656;SDS011;14279;50.010;8.260;2022-10-26T10:03:26;14.47;;;6.10;;
26656;SDS011;14279;50.010;8.260;2022-10-26T10:06:12;47.57;;;27.97;;
26656;SDS011;14279;50.010;8.260;2022-10-26T10:08:40;24.80;;;13.20;;
26656;SDS011;14279;50.010;8.260;2022-10-26T10:11:12;14.93;;;5.50;;
26656;SDS011;14279;50.010;8.260;2022-10-26T10:13:39;15.50;;;5.60;;
26656;SDS011;14279;50.010;8.260;2022-10-26T10:18:55;6.00;;;4.23;;
26656;SDS011;14279;50.010;8.260;2022-10-26T10:21:34;10.20;;;4.27;;
26656;SDS011;14279;50.010;8.260;2022-10-26T10:24:02;7.83;;;3.37;;
26656;SDS011;14279;50.010;8.260;2022-10-26T10:26:54;10.23;;;3.70;;
26656;SDS011;14279;50.010;8.260;2022-10-26T10:29:27;8.30;;;3.40;;
26656;SDS011;14279;50.010;8.260;2022-10-26T10:31:54;9.77;;;3.43;;
26656;SDS011;14279;50.010;8.260;2022-10-26T10:34:21;11.53;;;3.80;;
26656;SDS011;14279;50.010;8.260;2022-10-26T10:36:47;15.50;;;4.43;;
26656;SDS011;14279;50.010;8.260;2022-10-26T10:39:25;20.37;;;6.60;;
26656;SDS011;14279;50.010;8.260;2022-10-26T10:41:58;10.13;;;3.37;;
26656;SDS011;14279;50.010;8.260;2022-10-26T10:44:25;12.80;;;3.27;;
26656;SDS011;14279;50.010;8.260;2022-10-26T10:47:04;14.67;;;3.97;;
26656;SDS011;14279;50.010;8.260;2022-10-26T10:49:36;9.23;;;3.33;;
26656;SDS011;14279;50.010;8.260;2022-10-26T10:52:02;9.63;;;2.90;;
26656;SDS011;14279;50.010;8.260;2022-10-26T10:54:29;5.63;;;3.50;;
26656;SDS011;14279;50.010;8.260;2022-10-26T10:59:46;9.80;;;3.43;;
26656;SDS011;14279;50.010;8.260;2022-10-26T11:05:26;6.30;;;2.47;;
26656;SDS011;14279;50.010;8.260;2022-10-26T11:08:19;15.10;;;3.37;;
26656;SDS011;14279;50.010;8.260;2022-10-26T11:11:12;10.87;;;2.70;;
26656;SDS011;14279;50.010;8.260;2022-10-26T11:21:33;8.30;;;3.37;;
26656;SDS011;14279;50.010;8.260;2022-10-26T11:28:18;9.23;;;3.60;;
26656;SDS011;14279;50.010;8.260;2022-10-26T11:30:52;13.13;;;4.77;;
26656;SDS011;14279;50.010;8.260;2022-10-26T11:33:27;10.17;;;3.50;;
26656;SDS011;14279;50.010;8.260;2022-10-26T11:36:05;8.93;;;2.97;;
26656;SDS011;14279;50.010;8.260;2022-10-26T11:41:07;11.50;;;3.80;;
26656;SDS011;14279;50.010;8.260;2022-10-26T11:48:21;12.47;;;3.00;;
26656;SDS011;14279;50.010;8.260;2022-10-26T11:51:14;9.70;;;3.10;;
26656;SDS011;14279;50.010;8.260;2022-10-26T11:53:44;6.97;;;3.10;;
26656;SDS011;14279;50.010;8.260;2022-10-26T11:56:12;4.90;;;2.70;;
26656;SDS011;14279;50.010;8.260;2022-10-26T11:58:49;8.83;;;3.50;;
26656;SDS011;14279;50.010;8.260;2022-10-26T12:01:15;7.30;;;2.30;;
26656;SDS011;14279;50.010;8.260;2022-10-26T12:03:42;9.80;;;2.40;;
26656;SDS011;14279;50.010;8.260;2022-10-26T12:06:13;8.10;;;2.93;;
26656;SDS011;14279;50.010;8.260;2022-10-26T12:08:41;10.60;;;3.50;;
26656;SDS011;14279;50.010;8.260;2022-10-26T12:11:33;9.13;;;3.30;;
26656;SDS011;14279;50.010;8.260;2022-10-26T12:22:09;9.73;;;4.30;;
26656;SDS011;14279;50.010;8.260;2022-10-26T12:24:40;11.57;;;3.57;;
26656;SDS011;14279;50.010;8.260;2022-10-26T12:27:18;13.77;;;3.20;;
26656;SDS011;14279;50.010;8.260;2022-10-26T12:37:56;15.30;;;3.57;;
26656;SDS011;14279;50.010;8.260;2022-10-26T12:42:57;14.33;;;4.30;;
26656;SDS011;14279;50.010;8.260;2022-10-26T12:45:35;14.50;;;3.27;;
26656;SDS011;14279;50.010;8.260;2022-10-26T12:48:01;10.40;;;4.20;;
26656;SDS011;14279;50.010;8.260;2022-10-26T12:50:28;11.13;;;3.17;;
26656;SDS011;14279;50.010;8.260;2022-10-26T12:58:37;10.70;;;4.37;;
26656;SDS011;14279;50.010;8.260;2022-10-26T13:01:17;8.50;;;3.97;;
26656;SDS011;14279;50.010;8.260;2022-10-26T13:09:30;11.40;;;3.13;;
26656;SDS011;14279;50.010;8.260;2022-10-26T13:11:57;11.20;;;3.50;;
26656;SDS011;14279;50.010;8.260;2022-10-26T13:14:27;7.57;;;2.60;;
26656;SDS011;14279;50.010;8.260;2022-10-26T13:16:57;11.43;;;2.30;;
26656;SDS011;14279;50.010;8.260;2022-10-26T13:21:50;12.50;;;2.23;;
26656;SDS011;14279;50.010;8.260;2022-10-26T13:24:16;5.13;;;2.37;;
26656;SDS011;14279;50.010;8.260;2022-10-26T13:29:29;10.87;;;2.80;;
26656;SDS011;14279;50.010;8.260;2022-10-26T13:31:56;4.60;;;2.70;;
26656;SDS011;14279;50.010;8.260;2022-10-26T13:34:23;11.97;;;2.50;;
26656;SDS011;14279;50.010;8.260;2022-10-26T13:39:51;9.93;;;2.97;;
26656;SDS011;14279;50.010;8.260;2022-10-26T13:42:26;12.17;;;2.77;;
26656;SDS011;14279;50.010;8.260;2022-10-26T13:45:02;13.13;;;3.20;;
26656;SDS011;14279;50.010;8.260;2022-10-26T13:47:41;5.57;;;2.27;;
26656;SDS011;14279;50.010;8.260;2022-10-26T13:50:24;8.53;;;2.97;;
26656;SDS011;14279;50.010;8.260;2022-10-26T13:52:53;9.80;;;2.30;;
26656;SDS011;14279;50.010;8.260;2022-10-26T13:55:23;3.83;;;1.70;;
26656;SDS011;14279;50.010;8.260;2022-10-26T13:58:08;6.30;;;2.40;;
26656;SDS011;14279;50.010;8.260;2022-10-26T14:00:34;12.13;;;2.00;;
26656;SDS011;14279;50.010;8.260;2022-10-26T14:03:10;6.37;;;2.20;;
26656;SDS011;14279;50.010;8.260;2022-10-26T14:05:39;4.83;;;2.47;;
26656;SDS011;14279;50.010;8.260;2022-10-26T14:08:10;5.80;;;2.50;;
26656;SDS011;14279;50.010;8.260;2022-10-26T14:10:40;7.53;;;2.87;;
26656;SDS011;14279;50.010;8.260;2022-10-26T14:13:09;12.40;;;5.70;;
26656;SDS011;14279;50.010;8.260;2022-10-26T14:15:41;8.33;;;2.03;;
26656;SDS011;14279;50.010;8.260;2022-10-26T14:18:13;10.27;;;3.30;;
26656;SDS011;14279;50.010;8.260;2022-10-26T14:20:51;4.73;;;2.30;;
26656;SDS011;14279;50.010;8.260;2022-10-26T14:23:28;8.07;;;2.77;;
26656;SDS011;14279;50.010;8.260;2022-10-26T14:25:58;9.53;;;1.70;;
26656;SDS011;14279;50.010;8.260;2022-10-26T14:28:47;3.83;;;1.63;;
26656;SDS011;14279;50.010;8.260;2022-10-26T14:31:25;6.47;;;2.00;;
26656;SDS011;14279;50.010;8.260;2022-10-26T14:33:53;9.33;;;2.30;;
26656;SDS011;14279;50.010;8.260;2022-10-26T14:36:20;6.23;;;2.70;;
26656;SDS011;14279;50.010;8.260;2022-10-26T14:38:51;8.37;;;2.20;;
26656;SDS011;14279;50.010;8.260;2022-10-26T14:41:22;7.90;;;2.27;;
26656;SDS011;14279;50.010;8.260;2022-10-26T14:43:48;8.90;;;2.17;;
26656;SDS011;14279;50.010;8.260;2022-10-26T14:46:14;6.77;;;1.97;;
26656;SDS011;14279;50.010;8.260;2022-10-26T14:48:48;7.03;;;2.67;;
26656;SDS011;14279;50.010;8.260;2022-10-26T14:51:17;12.00;;;2.27;;
26656;SDS011;14279;50.010;8.260;2022-10-26T14:53:47;4.30;;;2.30;;
26656;SDS011;14279;50.010;8.260;2022-10-26T14:56:22;13.83;;;2.70;;
26656;SDS011;14279;50.010;8.260;2022-10-26T14:59:08;5.30;;;2.40;;
26656;SDS011;14279;50.010;8.260;2022-10-26T15:01:51;7.23;;;2.43;;
26656;SDS011;14279;50.010;8.260;2022-10-26T15:04:26;6.07;;;2.17;;
26656;SDS011;14279;50.010;8.260;2022-10-26T15:07:15;5.10;;;2.40;;
26656;SDS011;14279;50.010;8.260;2022-10-26T15:09:44;4.67;;;1.90;;
26656;SDS011;14279;50.010;8.260;2022-10-26T15:14:44;7.97;;;2.30;;
26656;SDS011;14279;50.010;8.260;2022-10-26T15:17:21;8.27;;;2.87;;
26656;SDS011;14279;50.010;8.260;2022-10-26T15:19:48;5.90;;;2.83;;
26656;SDS011;14279;50.010;8.260;2022-10-26T15:22:25;6.17;;;2.80;;
26656;SDS011;14279;50.010;8.260;2022-10-26T15:24:53;8.03;;;2.67;;
26656;SDS011;14279;50.010;8.260;2022-10-26T15:27:21;10.40;;;2.20;;
26656;SDS011;14279;50.010;8.260;2022-10-26T15:29:48;8.47;;;2.90;;
26656;SDS011;14279;50.010;8.260;2022-10-26T15:37:36;3.30;;;2.20;;
26656;SDS011;14279;50.010;8.260;2022-10-26T15:40:02;11.03;;;2.77;;
26656;SDS011;14279;50.010;8.260;2022-10-26T15:42:28;6.33;;;2.40;;
26656;SDS011;14279;50.010;8.260;2022-10-26T15:44:53;5.50;;;2.23;;
26656;SDS011;14279;50.010;8.260;2022-10-26T15:47:18;4.60;;;2.30;;
26656;SDS011;14279;50.010;8.260;2022-10-26T15:49:45;5.17;;;1.97;;
26656;SDS011;14279;50.010;8.260;2022-10-26T15:52:11;12.10;;;2.90;;
26656;SDS011;14279;50.010;8.260;2022-10-26T15:54:36;6.67;;;1.63;;
26656;SDS011;14279;50.010;8.260;2022-10-26T15:57:01;8.73;;;2.33;;
26656;SDS011;14279;50.010;8.260;2022-10-26T15:59:27;4.03;;;2.37;;
26656;SDS011;14279;50.010;8.260;2022-10-26T16:01:52;9.60;;;2.50;;
26656;SDS011;14279;50.010;8.260;2022-10-26T16:04:18;5.07;;;2.00;;
26656;SDS011;14279;50.010;8.260;2022-10-26T16:06:43;7.70;;;2.27;;
26656;SDS011;14279;50.010;8.260;2022-10-26T16:09:12;9.00;;;2.00;;
26656;SDS011;14279;50.010;8.260;2022-10-26T16:11:40;4.00;;;1.80;;
26656;SDS011;14279;50.010;8.260;2022-10-26T16:14:06;10.27;;;2.30;;
26656;SDS011;14279;50.010;8.260;2022-10-26T16:16:32;13.30;;;2.40;;
26656;SDS011;14279;50.010;8.260;2022-10-26T16:18:58;5.73;;;2.70;;
26656;SDS011;14279;50.010;8.260;2022-10-26T16:21:23;9.93;;;2.60;;
26656;SDS011;14279;50.010;8.260;2022-10-26T16:23:50;4.83;;;2.53;;
26656;SDS011;14279;50.010;8.260;2022-10-26T16:26:17;4.80;;;2.23;;
26656;SDS011;14279;50.010;8.260;2022-10-26T16:28:43;7.43;;;2.43;;
26656;SDS011;14279;50.010;8.260;2022-10-26T16:31:12;12.23;;;2.83;;
26656;SDS011;14279;50.010;8.260;2022-10-26T16:33:39;7.03;;;2.77;;
26656;SDS011;14279;50.010;8.260;2022-10-26T16:36:05;10.87;;;3.17;;
26656;SDS011;14279;50.010;8.260;2022-10-26T16:38:31;9.83;;;3.00;;
26656;SDS011;14279;50.010;8.260;2022-10-26T16:41:04;7.83;;;2.93;;
26656;SDS011;14279;50.010;8.260;2022-10-26T16:43:37;9.60;;;3.20;;
26656;SDS011;14279;50.010;8.260;2022-10-26T16:46:08;14.73;;;3.03;;
26656;SDS011;14279;50.010;8.260;2022-10-26T16:48:36;14.43;;;3.00;;
26656;SDS011;14279;50.010;8.260;2022-10-26T16:51:03;6.23;;;3.10;;
26656;SDS011;14279;50.010;8.260;2022-10-26T16:53:31;5.70;;;2.50;;
26656;SDS011;14279;50.010;8.260;2022-10-26T16:56:00;4.37;;;2.50;;
26656;SDS011;14279;50.010;8.260;2022-10-26T16:58:36;6.03;;;2.47;;
26656;SDS011;14279;50.010;8.260;2022-10-26T17:01:02;6.00;;;3.40;;
26656;SDS011;14279;50.010;8.260;2022-10-26T17:03:28;8.93;;;3.63;;
26656;SDS011;14279;50.010;8.260;2022-10-26T17:05:57;11.30;;;3.20;;
26656;SDS011;14279;50.010;8.260;2022-10-26T17:08:24;10.30;;;3.30;;
26656;SDS011;14279;50.010;8.260;2022-10-26T17:10:50;8.80;;;3.43;;
26656;SDS011;14279;50.010;8.260;2022-10-26T17:13:16;9.10;;;3.20;;
26656;SDS011;14279;50.010;8.260;2022-10-26T17:15:41;11.23;;;2.23;;
26656;SDS011;14279;50.010;8.260;2022-10-26T17:18:07;8.57;;;3.37;;
26656;SDS011;14279;50.010;8.260;2022-10-26T17:20:34;6.13;;;3.50;;
26656;SDS011;14279;50.010;8.260;2022-10-26T17:23:00;9.43;;;2.50;;
26656;SDS011;14279;50.010;8.260;2022-10-26T17:25:25;8.47;;;3.80;;
26656;SDS011;14279;50.010;8.260;2022-10-26T17:27:50;6.33;;;3.40;;
26656;SDS011;14279;50.010;8.260;2022-10-26T17:30:15;8.80;;;4.40;;
26656;SDS011;14279;50.010;8.260;2022-10-26T17:32:41;14.33;;;4.43;;
26656;SDS011;14279;50.010;8.260;2022-10-26T17:35:06;16.43;;;4.07;;
26656;SDS011;14279;50.010;8.260;2022-10-26T17:37:32;12.50;;;3.67;;
26656;SDS011;14279;50.010;8.260;2022-10-26T17:39:58;6.50;;;3.20;;